createdAt,value
2022-10-28T00:01:20.888Z,12.51
2022-10-28T00:03:56.144Z,12.35
2022-10-28T00:06:25.707Z,12.33
2022-10-28T00:08:52.645Z,12.20
2022-10-28T00:11:24.711Z,11.92
2022-10-28T00:13:55.069Z,11.93
2022-10-28T00:16:25.758Z,12.27
2022-10-28T00:18:52.627Z,12.41
2022-10-28T00:21:22.321Z,12.17
2022-10-28T00:23:48.966Z,11.98
2022-10-28T00:26:20.661Z,11.84
2022-10-28T00:28:56.001Z,11.91
2022-10-28T00:31:24.461Z,11.95
2022-10-28T00:33:51.862Z,12.25
2022-10-28T00:36:24.010Z,12.23
2022-10-28T00:38:52.536Z,12.75
2022-10-28T00:41:25.419Z,12.67
2022-10-28T00:43:55.922Z,12.37
2022-10-28T00:46:42.981Z,12.51
2022-10-28T00:49:26.090Z,12.34
2022-10-28T00:51:57.242Z,12.24
2022-10-28T00:54:24.211Z,11.90
2022-10-28T00:56:54.714Z,12.48
2022-10-28T00:59:29.546Z,12.77
2022-10-28T01:01:56.306Z,12.71
2022-10-28T01:04:23.188Z,12.57
2022-10-28T01:06:51.387Z,12.41
2022-10-28T01:09:18.107Z,12.24
2022-10-28T01:12:06.225Z,12.66
2022-10-28T01:15:05.590Z,12.76
2022-10-28T01:17:44.824Z,12.41
2022-10-28T01:20:27.472Z,12.43
2022-10-28T01:23:15.784Z,12.36
2022-10-28T01:26:29.153Z,12.55
2022-10-28T01:29:24.581Z,12.68
2022-10-28T01:31:57.765Z,12.66
2022-10-28T01:34:30.179Z,12.73
2022-10-28T01:37:11.590Z,12.52
2022-10-28T01:39:46.039Z,12.26
2022-10-28T01:42:23.004Z,12.29
2022-10-28T01:45:19.999Z,12.51
2022-10-28T01:48:00.757Z,12.57
2022-10-28T01:50:44.498Z,12.49
2022-10-28T01:53:15.255Z,12.41
2022-10-28T01:55:46.551Z,12.55
2022-10-28T01:58:17.974Z,12.89
2022-10-28T02:00:46.673Z,12.64
2022-10-28T02:03:13.336Z,12.38
2022-10-28T02:05:39.845Z,12.29
2022-10-28T02:08:26.709Z,12.11
2022-10-28T02:11:11.824Z,11.67
2022-10-28T02:13:47.026Z,11.97
2022-10-28T02:16:41.459Z,12.28
2022-10-28T02:19:22.737Z,12.36
2022-10-28T02:21:57.985Z,12.22
2022-10-28T02:25:09.133Z,11.94
2022-10-28T02:27:45.094Z,12.15
2022-10-28T02:30:19.783Z,11.90
2022-10-28T02:32:56.567Z,11.86
2022-10-28T02:35:50.769Z,12.05
2022-10-28T02:38:44.587Z,12.28
2022-10-28T02:41:21.738Z,12.36
2022-10-28T02:43:53.679Z,12.40
2022-10-28T02:46:22.348Z,12.23
2022-10-28T02:49:00.408Z,12.68
2022-10-28T02:51:36.841Z,12.69
2022-10-28T02:54:21.248Z,12.84
2022-10-28T02:57:07.529Z,12.69
2022-10-28T02:59:34.122Z,12.06
2022-10-28T03:02:00.924Z,12.18
2022-10-28T03:04:27.648Z,12.13
2022-10-28T03:06:54.269Z,12.27
2022-10-28T03:09:20.913Z,12.24
2022-10-28T03:11:47.474Z,12.34
2022-10-28T03:14:15.417Z,12.35
2022-10-28T03:16:42.270Z,11.92
2022-10-28T03:21:40.477Z,11.60
2022-10-28T03:24:07.232Z,11.91
2022-10-28T03:26:36.880Z,12.11
2022-10-28T03:29:03.479Z,11.69
2022-10-28T03:31:30.130Z,12.07
2022-10-28T03:33:56.731Z,12.31
2022-10-28T03:36:23.378Z,12.08
2022-10-28T03:38:50.043Z,11.85
2022-10-28T03:41:16.635Z,11.98
2022-10-28T03:43:43.220Z,11.99
2022-10-28T03:46:09.875Z,11.73
2022-10-28T03:48:36.462Z,11.84
2022-10-28T03:51:03.273Z,12.08
2022-10-28T03:53:31.457Z,11.82
2022-10-28T03:56:00.350Z,12.27
2022-10-28T03:58:27.231Z,12.12
2022-10-28T04:00:55.006Z,12.14
2022-10-28T04:03:23.293Z,12.12
2022-10-28T04:05:49.889Z,11.78
2022-10-28T04:08:18.244Z,11.88
2022-10-28T04:10:47.442Z,11.76
2022-10-28T04:13:15.184Z,11.76
2022-10-28T04:15:41.781Z,11.82
2022-10-28T04:18:08.549Z,11.87
2022-10-28T04:20:35.477Z,11.70
2022-10-28T04:23:02.292Z,12.03
2022-10-28T04:25:29.144Z,12.21
2022-10-28T04:27:56.040Z,12.03
2022-10-28T04:30:22.995Z,12.11
2022-10-28T04:32:49.555Z,12.16
2022-10-28T04:35:16.360Z,11.98
2022-10-28T04:37:43.076Z,11.95
2022-10-28T04:40:09.960Z,12.02
2022-10-28T04:42:36.535Z,12.16
2022-10-28T04:45:03.296Z,12.17
2022-10-28T04:47:29.876Z,12.13
2022-10-28T04:49:57.193Z,11.91
2022-10-28T04:52:23.826Z,11.92
2022-10-28T04:54:50.408Z,12.03
2022-10-28T04:57:17.076Z,12.09
2022-10-28T04:59:43.670Z,12.01
2022-10-28T05:02:10.395Z,11.59
2022-10-28T05:04:37.100Z,11.54
2022-10-28T05:07:03.708Z,11.67
2022-10-28T05:09:30.291Z,11.48
2022-10-28T05:11:56.948Z,11.65
2022-10-28T05:14:23.553Z,11.78
2022-10-28T05:16:50.222Z,11.90
2022-10-28T05:19:16.887Z,11.75
2022-10-28T05:21:43.465Z,11.65
2022-10-28T05:24:10.105Z,11.90
2022-10-28T05:26:36.802Z,12.03
2022-10-28T05:29:03.386Z,11.89
2022-10-28T05:31:29.995Z,12.04
2022-10-28T05:33:56.572Z,11.98
2022-10-28T05:36:23.179Z,12.08
2022-10-28T05:38:49.853Z,11.58
2022-10-28T05:41:16.439Z,11.76
2022-10-28T05:43:43.019Z,11.45
2022-10-28T05:46:09.766Z,11.47
2022-10-28T05:48:36.336Z,11.65
2022-10-28T05:51:02.918Z,11.70
2022-10-28T05:53:29.593Z,11.47
2022-10-28T05:55:56.277Z,11.92
2022-10-28T05:58:22.870Z,11.67
2022-10-28T06:00:49.509Z,11.83
2022-10-28T06:03:16.076Z,11.67
2022-10-28T06:05:44.983Z,11.84
2022-10-28T06:08:13.224Z,11.81
2022-10-28T06:10:40.803Z,11.90
2022-10-28T06:13:06.875Z,11.86
2022-10-28T06:15:33.449Z,11.60
2022-10-28T06:18:00.572Z,11.49
2022-10-28T06:20:27.184Z,11.67
2022-10-28T06:22:54.460Z,11.47
2022-10-28T06:25:22.376Z,11.52
2022-10-28T06:27:56.961Z,11.11
2022-10-28T06:30:25.080Z,11.23
2022-10-28T06:32:51.873Z,11.48
2022-10-28T06:35:18.458Z,11.28
2022-10-28T06:37:45.111Z,11.24
2022-10-28T06:40:12.288Z,11.25
2022-10-28T06:42:38.868Z,11.57
2022-10-28T06:45:06.095Z,11.97
2022-10-28T06:47:36.601Z,12.01
2022-10-28T06:50:06.651Z,12.17
2022-10-28T06:52:33.459Z,11.85
2022-10-28T06:55:00.097Z,11.60
2022-10-28T06:57:29.149Z,11.62
2022-10-28T06:59:56.044Z,11.77
2022-10-28T07:02:22.769Z,11.97
2022-10-28T07:04:49.429Z,11.88
2022-10-28T07:07:16.047Z,11.99
2022-10-28T07:09:43.601Z,11.88
2022-10-28T07:12:10.242Z,11.89
2022-10-28T07:14:36.838Z,12.11
2022-10-28T07:17:03.643Z,12.15
2022-10-28T07:19:30.867Z,12.11
2022-10-28T07:21:57.456Z,12.05
2022-10-28T07:24:24.188Z,11.99
2022-10-28T07:26:53.022Z,11.92
2022-10-28T07:29:22.141Z,11.80
2022-10-28T07:31:48.802Z,11.48
2022-10-28T07:34:15.584Z,11.61
2022-10-28T07:36:42.231Z,11.54
2022-10-28T07:39:10.138Z,11.88
2022-10-28T07:41:37.363Z,11.59
2022-10-28T07:44:04.049Z,11.42
2022-10-28T07:46:30.931Z,11.34
2022-10-28T07:48:57.636Z,11.23
2022-10-28T07:51:24.276Z,11.32
2022-10-28T07:53:50.881Z,11.46
2022-10-28T07:56:17.563Z,11.67
2022-10-28T07:58:45.114Z,11.75
2022-10-28T08:01:13.862Z,11.78
2022-10-28T08:03:40.883Z,11.61
2022-10-28T08:06:11.401Z,11.73
2022-10-28T08:08:38.875Z,11.84
2022-10-28T08:11:13.178Z,11.52
2022-10-28T08:13:40.512Z,11.65
2022-10-28T08:16:07.902Z,11.46
2022-10-28T08:18:36.067Z,11.52
2022-10-28T08:21:04.956Z,11.71
2022-10-28T08:23:31.605Z,11.71
2022-10-28T08:25:58.408Z,11.45
2022-10-28T08:28:25.262Z,11.44
2022-10-28T08:31:04.110Z,11.62
2022-10-28T08:33:44.319Z,11.77
2022-10-28T08:36:13.559Z,11.60
2022-10-28T08:38:45.123Z,11.65
2022-10-28T08:41:17.822Z,11.68
2022-10-28T08:43:57.297Z,11.47
2022-10-28T08:46:48.813Z,11.46
2022-10-28T08:49:19.574Z,11.44
2022-10-28T08:52:04.068Z,11.45
2022-10-28T08:54:55.512Z,11.37
2022-10-28T08:57:39.174Z,11.24
2022-10-28T09:00:09.434Z,11.55
2022-10-28T09:02:53.933Z,11.44
2022-10-28T09:05:23.478Z,11.52
2022-10-28T09:07:51.299Z,11.82
2022-10-28T09:10:44.501Z,11.94
2022-10-28T09:13:36.620Z,11.76
2022-10-28T09:16:44.661Z,11.47
2022-10-28T09:19:43.231Z,11.25
2022-10-28T09:22:42.133Z,10.94
2022-10-28T09:25:25.885Z,10.99
2022-10-28T09:28:20.353Z,10.87
2022-10-28T09:31:05.622Z,10.69
2022-10-28T09:33:34.992Z,11.09
2022-10-28T09:36:04.043Z,10.51
2022-10-28T09:38:34.423Z,10.98
2022-10-28T09:41:06.535Z,11.35
2022-10-28T09:43:35.080Z,11.65
2022-10-28T09:46:07.319Z,11.82
2022-10-28T09:48:46.240Z,11.75
2022-10-28T09:51:57.905Z,11.85
2022-10-28T09:54:36.228Z,11.99
2022-10-28T09:57:04.183Z,12.14
2022-10-28T09:59:31.388Z,12.20
2022-10-28T10:01:58.371Z,12.01
2022-10-28T10:04:27.836Z,11.88
2022-10-28T10:06:59.541Z,11.50
2022-10-28T10:09:32.005Z,11.34
2022-10-28T10:12:10.478Z,10.95
2022-10-28T10:14:42.901Z,11.02
2022-10-28T10:17:16.760Z,10.54
2022-10-28T10:20:17.531Z,11.25
2022-10-28T10:22:46.374Z,11.13
2022-10-28T10:25:19.203Z,11.32
2022-10-28T10:27:52.116Z,11.22
2022-10-28T10:30:23.414Z,11.24
2022-10-28T10:32:51.876Z,11.47
2022-10-28T10:35:27.288Z,11.58
2022-10-28T10:37:57.324Z,11.53
2022-10-28T10:40:50.448Z,11.39
2022-10-28T10:43:21.812Z,11.90
2022-10-28T10:46:15.530Z,11.86
2022-10-28T10:48:42.701Z,12.18
2022-10-28T10:51:22.135Z,12.04
2022-10-28T10:53:52.035Z,11.88
2022-10-28T10:56:27.747Z,12.08
2022-10-28T10:58:57.391Z,12.00
2022-10-28T11:01:28.406Z,12.06
2022-10-28T11:03:59.864Z,12.07
2022-10-28T11:06:32.621Z,11.97
2022-10-28T11:09:03.364Z,12.09
2022-10-28T11:11:40.598Z,11.78
2022-10-28T11:14:22.725Z,11.67
2022-10-28T11:16:55.030Z,11.88
2022-10-28T11:19:27.772Z,11.69
2022-10-28T11:21:54.402Z,11.92
2022-10-28T11:24:39.562Z,11.93
2022-10-28T11:27:24.538Z,11.99
2022-10-28T11:29:51.342Z,11.94
2022-10-28T11:32:23.770Z,12.23
2022-10-28T11:35:02.123Z,11.89
2022-10-28T11:38:06.018Z,12.15
2022-10-28T11:40:59.057Z,12.43
2022-10-28T11:43:37.814Z,12.58
2022-10-28T11:46:11.477Z,12.50
2022-10-28T11:48:56.925Z,12.61
2022-10-28T11:51:40.138Z,12.52
2022-10-28T11:54:18.905Z,12.41
2022-10-28T11:56:49.793Z,11.26
2022-10-28T12:00:01.176Z,11.75
2022-10-28T12:03:01.773Z,11.25
2022-10-28T12:05:57.361Z,11.80
2022-10-28T12:09:02.652Z,11.65
2022-10-28T12:11:35.266Z,12.04
2022-10-28T12:14:10.956Z,11.97
2022-10-28T12:17:00.181Z,11.79
2022-10-28T12:19:34.909Z,12.15
2022-10-28T12:22:10.402Z,11.73
2022-10-28T12:24:39.980Z,11.68
2022-10-28T12:27:25.332Z,11.40
2022-10-28T12:29:57.661Z,12.26
2022-10-28T12:32:31.607Z,12.37
2022-10-28T12:35:16.587Z,12.35
2022-10-28T12:37:51.337Z,12.00
2022-10-28T12:40:48.064Z,11.96
2022-10-28T12:43:23.014Z,11.86
2022-10-28T12:45:55.119Z,11.99
2022-10-28T12:48:35.503Z,12.09
2022-10-28T12:51:07.086Z,11.91
2022-10-28T12:53:39.929Z,11.97
2022-10-28T12:56:39.289Z,11.83
2022-10-28T12:59:46.245Z,11.98
2022-10-28T13:02:32.474Z,12.11
2022-10-28T13:04:59.324Z,12.24
2022-10-28T13:07:48.014Z,12.34
2022-10-28T13:10:27.319Z,12.56
2022-10-28T13:13:09.264Z,12.60
2022-10-28T13:15:51.219Z,12.62
2022-10-28T13:18:36.150Z,12.33
2022-10-28T13:21:14.728Z,12.05
2022-10-28T13:23:53.381Z,12.22
2022-10-28T13:26:27.235Z,12.58
2022-10-28T13:28:58.141Z,12.27
2022-10-28T13:31:39.977Z,12.30
2022-10-28T13:34:08.721Z,12.44
2022-10-28T13:36:38.636Z,12.58
2022-10-28T13:39:14.612Z,12.04
2022-10-28T13:41:44.867Z,11.88
2022-10-28T13:44:42.465Z,12.24
2022-10-28T13:47:15.077Z,11.89
2022-10-28T13:50:07.580Z,12.03
2022-10-28T13:52:34.868Z,12.10
2022-10-28T13:55:21.987Z,11.93
2022-10-28T13:57:52.128Z,11.17
2022-10-28T14:00:18.942Z,11.59
2022-10-28T14:02:58.279Z,11.79
2022-10-28T14:05:37.594Z,12.01
2022-10-28T14:08:18.457Z,11.85
2022-10-28T14:11:07.920Z,11.92
2022-10-28T14:13:41.693Z,11.37
2022-10-28T14:16:30.376Z,11.53
2022-10-28T14:19:14.857Z,11.21
2022-10-28T14:21:54.397Z,11.59
2022-10-28T14:24:36.716Z,11.82
2022-10-28T14:27:06.306Z,11.83
2022-10-28T14:29:55.951Z,11.54
2022-10-28T14:32:31.834Z,11.37
2022-10-28T14:35:10.270Z,11.56
2022-10-28T14:37:42.925Z,11.94
2022-10-28T14:40:32.577Z,11.98
2022-10-28T14:43:36.033Z,11.31
2022-10-28T14:46:44.236Z,11.37
2022-10-28T14:49:21.065Z,11.40
2022-10-28T14:51:49.809Z,11.95
2022-10-28T14:54:27.233Z,12.32
2022-10-28T14:56:56.460Z,12.21
2022-10-28T14:59:42.713Z,12.18
2022-10-28T15:02:20.920Z,12.17
2022-10-28T15:05:17.950Z,11.92
2022-10-28T15:07:44.786Z,12.22
2022-10-28T15:10:23.917Z,12.40
2022-10-28T15:12:50.871Z,12.57
2022-10-28T15:15:29.000Z,12.47
2022-10-28T15:17:56.208Z,12.44
2022-10-28T15:20:27.644Z,12.27
2022-10-28T15:23:12.969Z,12.40
2022-10-28T15:25:39.684Z,12.55
2022-10-28T15:28:06.369Z,12.77
2022-10-28T15:30:33.139Z,12.77
2022-10-28T15:33:29.911Z,12.58
2022-10-28T15:36:25.966Z,11.92
2022-10-28T15:39:08.658Z,12.30
2022-10-28T15:41:46.349Z,12.33
2022-10-28T15:44:26.204Z,12.69
2022-10-28T15:46:54.547Z,12.56
2022-10-28T15:49:40.647Z,11.94
2022-10-28T15:52:20.836Z,12.18
2022-10-28T15:54:58.622Z,12.04
2022-10-28T15:57:28.198Z,12.09
2022-10-28T16:00:29.868Z,12.03
2022-10-28T16:03:02.176Z,12.39
2022-10-28T16:05:31.615Z,12.51
2022-10-28T16:08:00.556Z,12.22
2022-10-28T16:10:35.042Z,12.09
2022-10-28T16:13:07.629Z,12.23
2022-10-28T16:15:49.184Z,11.44
2022-10-28T16:18:15.845Z,11.60
2022-10-28T16:20:44.515Z,12.23
2022-10-28T16:23:17.590Z,12.34
2022-10-28T16:25:44.197Z,12.53
2022-10-28T16:28:26.507Z,12.69
2022-10-28T16:30:58.809Z,12.70
2022-10-28T16:33:44.414Z,12.34
2022-10-28T16:36:11.533Z,11.92
2022-10-28T16:38:39.062Z,12.27
2022-10-28T16:41:10.354Z,12.50
2022-10-28T16:43:37.237Z,12.62
2022-10-28T16:46:03.807Z,12.79
2022-10-28T16:48:30.887Z,12.89
2022-10-28T16:51:00.837Z,12.60
2022-10-28T16:53:27.501Z,12.44
2022-10-28T16:55:54.590Z,12.69
2022-10-28T16:58:23.309Z,12.08
2022-10-28T17:00:52.980Z,12.74
2022-10-28T17:03:19.601Z,12.41
2022-10-28T17:05:46.188Z,12.57
2022-10-28T17:08:13.564Z,12.20
2022-10-28T17:10:41.759Z,12.11
2022-10-28T17:13:15.689Z,11.85
2022-10-28T17:15:43.100Z,11.54
2022-10-28T17:18:11.463Z,11.58
2022-10-28T17:20:38.153Z,11.61
2022-10-28T17:23:05.685Z,11.94
2022-10-28T17:25:32.360Z,12.40
2022-10-28T17:27:59.136Z,12.53
2022-10-28T17:30:26.175Z,12.21
2022-10-28T17:32:54.160Z,12.23
2022-10-28T17:35:22.341Z,12.24
2022-10-28T17:37:49.554Z,12.64
2022-10-28T17:40:16.180Z,12.68
2022-10-28T17:42:42.758Z,12.16
2022-10-28T17:45:10.108Z,12.21
2022-10-28T17:47:36.805Z,11.67
2022-10-28T17:50:03.932Z,11.76
2022-10-28T17:52:34.245Z,12.22
2022-10-28T17:55:05.529Z,12.48
2022-10-28T17:57:32.114Z,12.24
2022-10-28T17:59:58.781Z,12.35
2022-10-28T18:02:25.736Z,12.34
2022-10-28T18:04:52.531Z,11.97
2022-10-28T18:07:19.141Z,11.57
2022-10-28T18:09:45.716Z,12.02
2022-10-28T18:12:12.296Z,12.21
2022-10-28T18:14:39.575Z,12.01
2022-10-28T18:17:06.174Z,12.13
2022-10-28T18:19:35.126Z,12.46
2022-10-28T18:22:01.698Z,12.63
2022-10-28T18:24:28.310Z,12.76
2022-10-28T18:26:55.253Z,12.50
2022-10-28T18:29:21.840Z,12.29
2022-10-28T18:31:48.445Z,11.89
2022-10-28T18:34:15.110Z,12.52
2022-10-28T18:36:41.896Z,12.58
2022-10-28T18:39:09.157Z,12.31
2022-10-28T18:41:37.778Z,11.94
2022-10-28T18:44:05.205Z,11.28
2022-10-28T18:46:34.004Z,11.81
2022-10-28T18:49:04.427Z,12.06
2022-10-28T18:51:32.453Z,11.44
2022-10-28T18:53:59.032Z,11.73
2022-10-28T18:56:27.467Z,12.16
2022-10-28T18:58:54.060Z,11.78
2022-10-28T19:01:23.796Z,12.12
2022-10-28T19:03:52.345Z,11.53
2022-10-28T19:06:19.724Z,11.92
2022-10-28T19:08:51.653Z,11.78
2022-10-28T19:11:19.070Z,12.11
2022-10-28T19:13:45.673Z,11.52
2022-10-28T19:18:43.778Z,11.54
2022-10-28T19:21:16.222Z,11.93
2022-10-28T19:23:43.527Z,11.32
2022-10-28T19:26:11.513Z,11.35
2022-10-28T19:28:40.501Z,11.27
2022-10-28T19:31:10.677Z,11.46
2022-10-28T19:33:37.467Z,11.33
2022-10-28T19:36:05.413Z,11.43
2022-10-28T19:38:35.905Z,11.68
2022-10-28T19:41:08.926Z,11.78
2022-10-28T19:43:36.375Z,12.15
2022-10-28T19:46:14.176Z,11.90
2022-10-28T19:48:43.350Z,11.63
2022-10-28T19:51:14.353Z,11.45
2022-10-28T19:53:41.242Z,11.21
2022-10-28T19:56:07.909Z,11.04
2022-10-28T19:58:34.575Z,11.38
2022-10-28T20:01:06.931Z,11.30
2022-10-28T20:03:35.154Z,11.07
2022-10-28T20:06:08.916Z,11.22
2022-10-28T20:08:37.246Z,11.30
2022-10-28T20:11:06.710Z,11.08
2022-10-28T20:13:35.151Z,11.32
2022-10-28T20:16:11.810Z,11.45
2022-10-28T20:18:39.266Z,11.30
2022-10-28T20:21:14.617Z,12.02
2022-10-28T20:23:45.775Z,11.59
2022-10-28T20:26:13.492Z,11.97
2022-10-28T20:28:40.474Z,12.24
2022-10-28T20:31:10.172Z,12.21
2022-10-28T20:33:41.730Z,11.98
2022-10-28T20:36:21.761Z,11.39
2022-10-28T20:38:48.341Z,11.15
2022-10-28T20:41:14.944Z,11.60
2022-10-28T20:43:41.840Z,11.89
2022-10-28T20:46:09.075Z,12.04
2022-10-28T20:48:35.694Z,12.23
2022-10-28T20:51:02.504Z,12.24
2022-10-28T20:53:33.820Z,11.79
2022-10-28T20:56:00.649Z,11.99
2022-10-28T20:58:32.812Z,12.19
2022-10-28T21:01:08.046Z,11.61
2022-10-28T21:03:34.701Z,11.98
2022-10-28T21:06:04.329Z,12.36
2022-10-28T21:08:30.950Z,12.39
2022-10-28T21:11:01.783Z,12.40
2022-10-28T21:13:28.358Z,12.04
2022-10-28T21:15:57.634Z,11.98
2022-10-28T21:18:25.391Z,11.44
2022-10-28T21:20:56.453Z,11.37
2022-10-28T21:23:24.167Z,10.84
2022-10-28T21:25:54.809Z,10.68
2022-10-28T21:28:21.831Z,11.07
2022-10-28T21:30:48.549Z,10.59
2022-10-28T21:33:15.906Z,10.86
2022-10-28T21:35:42.454Z,11.66
2022-10-28T21:38:09.031Z,11.89
2022-10-28T21:40:35.606Z,11.49
2022-10-28T21:43:02.191Z,11.52
2022-10-28T21:45:28.795Z,10.74
2022-10-28T21:47:55.821Z,10.68
2022-10-28T21:50:22.787Z,11.01
2022-10-28T21:52:49.433Z,11.70
2022-10-28T21:55:20.593Z,11.30
2022-10-28T21:57:53.928Z,10.77
2022-10-28T22:00:20.774Z,10.52
2022-10-28T22:02:47.424Z,10.53
2022-10-28T22:05:14.682Z,10.92
2022-10-28T22:07:41.321Z,11.04
2022-10-28T22:10:08.257Z,10.95
2022-10-28T22:12:34.838Z,10.94
2022-10-28T22:15:01.441Z,11.41
2022-10-28T22:17:29.345Z,11.62
2022-10-28T22:19:55.955Z,11.79
2022-10-28T22:22:22.537Z,11.89
2022-10-28T22:24:49.170Z,12.25
2022-10-28T22:27:15.768Z,12.22
2022-10-28T22:29:42.341Z,12.05
2022-10-28T22:32:08.932Z,12.19
2022-10-28T22:34:35.522Z,12.17
2022-10-28T22:37:02.141Z,11.93
2022-10-28T22:39:28.807Z,11.88
2022-10-28T22:41:55.398Z,12.19
2022-10-28T22:44:21.976Z,12.40
2022-10-28T22:46:48.587Z,12.78
2022-10-28T22:49:15.267Z,12.50
2022-10-28T22:51:41.843Z,12.75
2022-10-28T22:54:08.495Z,12.58
2022-10-28T22:56:35.115Z,12.52
2022-10-28T22:59:02.039Z,12.23
2022-10-28T23:01:29.769Z,12.33
2022-10-28T23:03:56.524Z,12.20
2022-10-28T23:06:25.884Z,12.04
2022-10-28T23:08:53.692Z,11.87
2022-10-28T23:11:21.919Z,12.00
2022-10-28T23:13:52.929Z,12.03
2022-10-28T23:16:20.159Z,11.71
2022-10-28T23:18:46.760Z,12.01
2022-10-28T23:21:22.220Z,11.54
2022-10-28T23:23:54.140Z,11.94
2022-10-28T23:26:21.314Z,12.16
2022-10-28T23:28:54.307Z,12.19
2022-10-28T23:31:21.551Z,12.23
2022-10-28T23:33:48.848Z,12.22
2022-10-28T23:36:16.404Z,11.94
2022-10-28T23:38:43.557Z,11.97
2022-10-28T23:41:15.727Z,11.77
2022-10-28T23:43:42.338Z,11.24
2022-10-28T23:46:09.514Z,11.23
2022-10-28T23:48:36.094Z,11.77
2022-10-28T23:51:03.196Z,12.16
2022-10-28T23:53:29.766Z,12.17
2022-10-28T23:55:56.680Z,11.57
2022-10-28T23:58:24.012Z,11.22
